sensor_id;sensor_type;location;lat;lon;timestamp;pressure;altitude;pressure_sealevel;temperature;humidity
6565;BME280;3316;44.118;27.258;2023-08-30T00:01:15;99996.44;;;24.54;100.00
6565;BME280;3316;44.118;27.258;2023-08-30T00:03:41;99985.53;;;24.44;100.00
6565;BME280;3316;44.118;27.258;2023-08-30T00:06:07;99994.13;;;24.49;100.00
6565;BME280;3316;44.118;27.258;2023-08-30T00:08:33;99986.66;;;24.53;100.00
6565;BME280;3316;44.118;27.258;2023-08-30T00:10:58;99988.75;;;24.49;100.00
6565;BME280;3316;44.118;27.258;2023-08-30T00:13:29;99988.50;;;24.52;100.00
6565;BME280;3316;44.118;27.258;2023-08-30T00:15:55;99985.34;;;24.58;100.00
6565;BME280;3316;44.118;27.258;2023-08-30T00:18:21;99972.63;;;24.49;100.00
6565;BME280;3316;44.118;27.258;2023-08-30T00:20:47;99986.41;;;24.56;100.00
6565;BME280;3316;44.118;27.258;2023-08-30T00:23:12;99989.63;;;24.61;100.00
6565;BME280;3316;44.118;27.258;2023-08-30T00:25:38;99988.50;;;24.63;100.00
6565;BME280;3316;44.118;27.258;2023-08-30T00:28:03;99985.22;;;24.60;100.00
6565;BME280;3316;44.118;27.258;2023-08-30T00:30:29;99979.22;;;24.56;100.00
6565;BME280;3316;44.118;27.258;2023-08-30T00:32:54;99989.50;;;24.51;100.00
6565;BME280;3316;44.118;27.258;2023-08-30T00:35:20;99986.66;;;24.53;100.00
6565;BME280;3316;44.118;27.258;2023-08-30T00:37:45;99987.75;;;24.50;100.00
6565;BME280;3316;44.118;27.258;2023-08-30T00:40:11;99976.50;;;24.45;100.00
6565;BME280;3316;44.118;27.258;2023-08-30T00:42:36;99993.88;;;24.52;100.00
6565;BME280;3316;44.118;27.258;2023-08-30T00:45:02;99988.28;;;24.55;100.00
6565;BME280;3316;44.118;27.258;2023-08-30T00:47:28;99995.59;;;24.53;100.00
6565;BME280;3316;44.118;27.258;2023-08-30T00:49:54;99993.53;;;24.57;100.00
6565;BME280;3316;44.118;27.258;2023-08-30T00:52:19;99961.72;;;24.40;100.00
6565;BME280;3316;44.118;27.258;2023-08-30T00:54:45;99981.75;;;24.47;100.00
6565;BME280;3316;44.118;27.258;2023-08-30T00:57:10;99960.09;;;24.26;100.00
6565;BME280;3316;44.118;27.258;2023-08-30T00:59:36;99986.78;;;24.51;100.00
6565;BME280;3316;44.118;27.258;2023-08-30T01:02:02;99983.84;;;24.43;100.00
6565;BME280;3316;44.118;27.258;2023-08-30T01:04:29;99997.56;;;24.51;100.00
6565;BME280;3316;44.118;27.258;2023-08-30T01:06:54;99997.19;;;24.56;100.00
6565;BME280;3316;44.118;27.258;2023-08-30T01:09:21;99982.84;;;24.44;100.00
6565;BME280;3316;44.118;27.258;2023-08-30T01:12:12;99999.88;;;24.56;100.00
6565;BME280;3316;44.118;27.258;2023-08-30T01:17:16;99982.84;;;24.33;100.00
6565;BME280;3316;44.118;27.258;2023-08-30T01:20:00;99987.81;;;24.27;100.00
6565;BME280;3316;44.118;27.258;2023-08-30T01:23:12;99988.06;;;24.24;100.00
6565;BME280;3316;44.118;27.258;2023-08-30T01:28:08;99981.19;;;24.09;100.00
6565;BME280;3316;44.118;27.258;2023-08-30T01:30:37;99987.03;;;24.14;100.00
6565;BME280;3316;44.118;27.258;2023-08-30T01:33:04;99979.22;;;24.11;100.00
6565;BME280;3316;44.118;27.258;2023-08-30T01:35:32;99973.00;;;24.10;100.00
6565;BME280;3316;44.118;27.258;2023-08-30T01:38:02;99981.44;;;24.17;100.00
6565;BME280;3316;44.118;27.258;2023-08-30T01:40:30;99975.56;;;24.12;100.00
6565;BME280;3316;44.118;27.258;2023-08-30T01:42:57;99988.41;;;24.19;100.00
6565;BME280;3316;44.118;27.258;2023-08-30T01:45:23;99987.06;;;24.25;100.00
6565;BME280;3316;44.118;27.258;2023-08-30T01:47:50;99983.31;;;24.27;100.00
6565;BME280;3316;44.118;27.258;2023-08-30T01:50:19;99985.38;;;24.24;100.00
6565;BME280;3316;44.118;27.258;2023-08-30T01:52:45;99990.41;;;24.28;100.00
6565;BME280;3316;44.118;27.258;2023-08-30T01:55:12;99986.47;;;24.21;100.00
6565;BME280;3316;44.118;27.258;2023-08-30T01:57:38;99987.44;;;24.20;100.00
6565;BME280;3316;44.118;27.258;2023-08-30T02:00:04;99983.00;;;24.08;100.00
6565;BME280;3316;44.118;27.258;2023-08-30T02:02:30;99979.69;;;24.05;100.00
6565;BME280;3316;44.118;27.258;2023-08-30T02:04:56;99935.53;;;23.72;100.00
6565;BME280;3316;44.118;27.258;2023-08-30T02:07:28;99980.59;;;23.93;100.00
6565;BME280;3316;44.118;27.258;2023-08-30T02:09:58;99982.28;;;23.94;100.00
6565;BME280;3316;44.118;27.258;2023-08-30T02:12:37;99969.97;;;23.91;100.00
6565;BME280;3316;44.118;27.258;2023-08-30T02:15:07;99970.78;;;23.92;100.00
6565;BME280;3316;44.118;27.258;2023-08-30T02:17:35;99978.63;;;23.95;100.00
6565;BME280;3316;44.118;27.258;2023-08-30T02:20:00;99940.34;;;23.80;100.00
6565;BME280;3316;44.118;27.258;2023-08-30T02:22:26;99973.16;;;23.96;100.00
6565;BME280;3316;44.118;27.258;2023-08-30T02:24:52;99978.53;;;23.96;100.00
6565;BME280;3316;44.118;27.258;2023-08-30T02:27:17;99969.13;;;24.02;100.00
6565;BME280;3316;44.118;27.258;2023-08-30T02:29:43;99973.75;;;24.00;100.00
6565;BME280;3316;44.118;27.258;2023-08-30T02:32:08;99967.34;;;24.02;100.00
6565;BME280;3316;44.118;27.258;2023-08-30T02:34:34;99962.28;;;23.98;100.00
6565;BME280;3316;44.118;27.258;2023-08-30T02:37:01;99956.16;;;23.96;100.00
6565;BME280;3316;44.118;27.258;2023-08-30T02:39:27;99954.66;;;23.92;100.00
6565;BME280;3316;44.118;27.258;2023-08-30T02:41:52;99956.16;;;23.96;100.00
6565;BME280;3316;44.118;27.258;2023-08-30T02:44:18;99953.84;;;23.91;100.00
6565;BME280;3316;44.118;27.258;2023-08-30T02:46:43;99954.66;;;23.92;100.00
6565;BME280;3316;44.118;27.258;2023-08-30T02:49:09;99945.78;;;23.91;100.00
6565;BME280;3316;44.118;27.258;2023-08-30T02:51:36;99955.03;;;23.87;100.00
6565;BME280;3316;44.118;27.258;2023-08-30T02:54:01;99954.28;;;23.85;100.00
6565;BME280;3316;44.118;27.258;2023-08-30T02:56:27;99950.59;;;23.75;100.00
6565;BME280;3316;44.118;27.258;2023-08-30T02:58:53;99954.75;;;23.79;100.00
6565;BME280;3316;44.118;27.258;2023-08-30T03:01:18;99962.69;;;23.80;100.00
6565;BME280;3316;44.118;27.258;2023-08-30T03:03:45;99955.25;;;23.84;100.00
6565;BME280;3316;44.118;27.258;2023-08-30T03:06:11;99958.06;;;23.82;100.00
6565;BME280;3316;44.118;27.258;2023-08-30T03:08:39;99946.31;;;23.83;100.00
6565;BME280;3316;44.118;27.258;2023-08-30T03:11:11;99965.41;;;23.92;100.00
6565;BME280;3316;44.118;27.258;2023-08-30T03:13:37;99950.25;;;23.79;100.00
6565;BME280;3316;44.118;27.258;2023-08-30T03:16:15;99962.22;;;23.86;100.00
6565;BME280;3316;44.118;27.258;2023-08-30T03:18:41;99955.50;;;23.81;100.00
6565;BME280;3316;44.118;27.258;2023-08-30T03:21:07;99969.28;;;23.76;100.00
6565;BME280;3316;44.118;27.258;2023-08-30T03:23:33;99949.69;;;23.63;100.00
6565;BME280;3316;44.118;27.258;2023-08-30T03:25:59;99957.91;;;23.73;100.00
6565;BME280;3316;44.118;27.258;2023-08-30T03:28:25;99950.28;;;23.67;100.00
6565;BME280;3316;44.118;27.258;2023-08-30T03:30:50;99948.13;;;23.72;100.00
6565;BME280;3316;44.118;27.258;2023-08-30T03:33:16;99960.72;;;23.71;100.00
6565;BME280;3316;44.118;27.258;2023-08-30T03:35:41;99962.66;;;23.69;100.00
6565;BME280;3316;44.118;27.258;2023-08-30T03:38:07;99975.25;;;23.80;100.00
6565;BME280;3316;44.118;27.258;2023-08-30T03:40:32;99944.88;;;23.56;100.00
6565;BME280;3316;44.118;27.258;2023-08-30T03:42:58;99979.81;;;23.79;100.00
6565;BME280;3316;44.118;27.258;2023-08-30T03:45:23;99980.63;;;23.80;100.00
6565;BME280;3316;44.118;27.258;2023-08-30T03:47:49;99978.94;;;23.79;100.00
6565;BME280;3316;44.118;27.258;2023-08-30T03:50:14;99988.06;;;23.76;100.00
6565;BME280;3316;44.118;27.258;2023-08-30T03:52:40;99991.50;;;23.78;100.00
6565;BME280;3316;44.118;27.258;2023-08-30T03:55:05;99974.72;;;23.64;100.00
6565;BME280;3316;44.118;27.258;2023-08-30T03:57:31;99989.28;;;23.72;100.00
6565;BME280;3316;44.118;27.258;2023-08-30T03:59:56;99998.81;;;23.76;100.00
6565;BME280;3316;44.118;27.258;2023-08-30T04:02:22;100008.50;;;23.79;100.00
6565;BME280;3316;44.118;27.258;2023-08-30T04:04:48;99994.53;;;23.74;100.00
6565;BME280;3316;44.118;27.258;2023-08-30T04:07:14;100008.41;;;23.92;100.00
6565;BME280;3316;44.118;27.258;2023-08-30T04:09:39;100012.59;;;23.96;100.00
6565;BME280;3316;44.118;27.258;2023-08-30T04:12:05;100008.69;;;24.00;100.00
6565;BME280;3316;44.118;27.258;2023-08-30T04:14:31;100025.66;;;24.13;100.00
6565;BME280;3316;44.118;27.258;2023-08-30T04:16:56;100013.00;;;24.26;100.00
6565;BME280;3316;44.118;27.258;2023-08-30T04:19:22;100020.63;;;24.43;100.00
6565;BME280;3316;44.118;27.258;2023-08-30T04:21:47;100018.34;;;24.71;100.00
6565;BME280;3316;44.118;27.258;2023-08-30T04:24:13;100013.19;;;24.92;100.00
6565;BME280;3316;44.118;27.258;2023-08-30T04:26:39;100011.94;;;25.29;100.00
6565;BME280;3316;44.118;27.258;2023-08-30T04:29:05;100006.22;;;25.45;100.00
6565;BME280;3316;44.118;27.258;2023-08-30T04:31:30;100014.50;;;25.64;100.00
6565;BME280;3316;44.118;27.258;2023-08-30T04:33:56;100023.13;;;25.90;100.00
6565;BME280;3316;44.118;27.258;2023-08-30T04:36:21;99977.78;;;25.95;100.00
6565;BME280;3316;44.118;27.258;2023-08-30T04:38:47;100016.13;;;26.30;100.00
6565;BME280;3316;44.118;27.258;2023-08-30T04:41:13;100025.53;;;26.35;100.00
6565;BME280;3316;44.118;27.258;2023-08-30T04:43:38;100020.81;;;26.69;100.00
6565;BME280;3316;44.118;27.258;2023-08-30T04:46:03;100016.50;;;26.78;100.00
6565;BME280;3316;44.118;27.258;2023-08-30T04:48:29;100025.94;;;27.44;100.00
6565;BME280;3316;44.118;27.258;2023-08-30T04:51:01;100018.09;;;27.99;100.00
6565;BME280;3316;44.118;27.258;2023-08-30T04:53:28;100017.13;;;28.10;100.00
6565;BME280;3316;44.118;27.258;2023-08-30T04:55:54;100027.53;;;28.24;100.00
6565;BME280;3316;44.118;27.258;2023-08-30T04:58:19;100030.97;;;28.55;100.00
6565;BME280;3316;44.118;27.258;2023-08-30T05:00:45;100029.50;;;28.70;100.00
6565;BME280;3316;44.118;27.258;2023-08-30T05:03:10;100013.13;;;28.71;100.00
6565;BME280;3316;44.118;27.258;2023-08-30T05:05:36;100028.38;;;28.44;100.00
6565;BME280;3316;44.118;27.258;2023-08-30T05:08:02;100018.25;;;28.17;100.00
6565;BME280;3316;44.118;27.258;2023-08-30T05:10:27;100029.22;;;28.44;100.00
6565;BME280;3316;44.118;27.258;2023-08-30T05:12:53;100016.38;;;28.84;100.00
6565;BME280;3316;44.118;27.258;2023-08-30T05:15:33;100033.03;;;29.36;100.00
6565;BME280;3316;44.118;27.258;2023-08-30T05:17:59;100041.03;;;29.37;100.00
6565;BME280;3316;44.118;27.258;2023-08-30T05:20:24;100029.53;;;29.53;100.00
6565;BME280;3316;44.118;27.258;2023-08-30T05:22:49;100035.13;;;29.96;100.00
6565;BME280;3316;44.118;27.258;2023-08-30T05:25:15;100048.44;;;29.72;100.00
6565;BME280;3316;44.118;27.258;2023-08-30T05:27:40;100039.38;;;29.54;100.00
6565;BME280;3316;44.118;27.258;2023-08-30T05:30:06;100017.44;;;29.01;100.00
6565;BME280;3316;44.118;27.258;2023-08-30T05:32:32;100050.06;;;28.63;100.00
6565;BME280;3316;44.118;27.258;2023-08-30T05:34:58;100041.59;;;28.85;100.00
6565;BME280;3316;44.118;27.258;2023-08-30T05:37:24;100035.91;;;29.61;100.00
6565;BME280;3316;44.118;27.258;2023-08-30T05:39:49;100041.34;;;30.24;100.00
6565;BME280;3316;44.118;27.258;2023-08-30T05:42:15;99971.66;;;29.89;100.00
6565;BME280;3316;44.118;27.258;2023-08-30T05:44:40;100037.69;;;30.42;100.00
6565;BME280;3316;44.118;27.258;2023-08-30T05:47:06;100040.53;;;30.23;100.00
6565;BME280;3316;44.118;27.258;2023-08-30T05:49:31;100053.41;;;31.00;100.00
6565;BME280;3316;44.118;27.258;2023-08-30T05:51:56;100050.97;;;31.14;100.00
6565;BME280;3316;44.118;27.258;2023-08-30T05:54:22;100044.66;;;31.73;100.00
6565;BME280;3316;44.118;27.258;2023-08-30T05:56:47;100053.38;;;31.43;100.00
6565;BME280;3316;44.118;27.258;2023-08-30T05:59:13;100052.00;;;30.88;100.00
6565;BME280;3316;44.118;27.258;2023-08-30T06:01:38;100045.25;;;31.25;100.00
6565;BME280;3316;44.118;27.258;2023-08-30T06:04:04;100033.81;;;31.14;100.00
6565;BME280;3316;44.118;27.258;2023-08-30T06:06:30;100055.59;;;31.22;100.00
6565;BME280;3316;44.118;27.258;2023-08-30T06:08:55;100053.44;;;31.59;100.00
6565;BME280;3316;44.118;27.258;2023-08-30T06:11:21;100057.59;;;31.71;100.00
6565;BME280;3316;44.118;27.258;2023-08-30T06:13:46;100051.97;;;31.73;100.00
6565;BME280;3316;44.118;27.258;2023-08-30T06:16:11;100038.88;;;32.26;100.00
6565;BME280;3316;44.118;27.258;2023-08-30T06:18:37;100066.09;;;32.26;100.00
6565;BME280;3316;44.118;27.258;2023-08-30T06:21:03;100052.19;;;31.45;100.00
6565;BME280;3316;44.118;27.258;2023-08-30T06:23:29;100068.25;;;31.05;100.00
6565;BME280;3316;44.118;27.258;2023-08-30T06:25:55;100048.69;;;31.02;100.00
6565;BME280;3316;44.118;27.258;2023-08-30T06:28:21;100041.72;;;31.33;100.00
6565;BME280;3316;44.118;27.258;2023-08-30T06:30:47;100059.09;;;32.23;100.00
6565;BME280;3316;44.118;27.258;2023-08-30T06:33:12;100068.31;;;31.81;100.00
6565;BME280;3316;44.118;27.258;2023-08-30T06:35:38;100062.03;;;31.80;100.00
6565;BME280;3316;44.118;27.258;2023-08-30T06:38:08;100065.56;;;32.06;100.00
6565;BME280;3316;44.118;27.258;2023-08-30T06:40:33;100040.16;;;31.98;100.00
6565;BME280;3316;44.118;27.258;2023-08-30T06:42:59;100069.78;;;32.01;100.00
6565;BME280;3316;44.118;27.258;2023-08-30T06:45:25;100074.03;;;32.03;100.00
6565;BME280;3316;44.118;27.258;2023-08-30T06:47:50;100073.31;;;32.51;100.00
6565;BME280;3316;44.118;27.258;2023-08-30T06:50:18;100068.53;;;33.72;100.00
6565;BME280;3316;44.118;27.258;2023-08-30T06:52:43;100092.41;;;33.78;99.80
6565;BME280;3316;44.118;27.258;2023-08-30T06:55:09;100088.41;;;33.26;100.00
6565;BME280;3316;44.118;27.258;2023-08-30T06:57:34;100067.28;;;32.23;100.00
6565;BME280;3316;44.118;27.258;2023-08-30T07:00:00;100058.38;;;32.05;100.00
6565;BME280;3316;44.118;27.258;2023-08-30T07:02:34;100069.16;;;32.39;100.00
6565;BME280;3316;44.118;27.258;2023-08-30T07:05:00;100078.56;;;32.93;100.00
6565;BME280;3316;44.118;27.258;2023-08-30T07:07:26;100092.53;;;32.66;100.00
6565;BME280;3316;44.118;27.258;2023-08-30T07:09:51;100067.09;;;32.25;100.00
6565;BME280;3316;44.118;27.258;2023-08-30T07:12:17;100072.69;;;32.07;100.00
6565;BME280;3316;44.118;27.258;2023-08-30T07:14:42;100066.47;;;31.89;100.00
6565;BME280;3316;44.118;27.258;2023-08-30T07:17:07;100081.34;;;31.95;100.00
6565;BME280;3316;44.118;27.258;2023-08-30T07:19:33;100070.03;;;31.90;100.00
6565;BME280;3316;44.118;27.258;2023-08-30T07:21:58;100075.41;;;32.07;100.00
6565;BME280;3316;44.118;27.258;2023-08-30T07:24:24;100084.97;;;32.19;100.00
6565;BME280;3316;44.118;27.258;2023-08-30T07:26:49;100080.34;;;31.70;100.00
6565;BME280;3316;44.118;27.258;2023-08-30T07:29:15;100091.72;;;31.99;100.00
6565;BME280;3316;44.118;27.258;2023-08-30T07:31:40;100087.34;;;31.73;100.00
6565;BME280;3316;44.118;27.258;2023-08-30T07:34:06;100085.94;;;32.02;100.00
6565;BME280;3316;44.118;27.258;2023-08-30T07:36:33;100099.34;;;32.46;96.57
6565;BME280;3316;44.118;27.258;2023-08-30T07:38:58;100081.97;;;32.55;93.89
6565;BME280;3316;44.118;27.258;2023-08-30T07:41:24;100088.13;;;33.05;90.12
6565;BME280;3316;44.118;27.258;2023-08-30T07:43:49;100074.66;;;33.03;87.57
6565;BME280;3316;44.118;27.258;2023-08-30T07:46:15;100085.84;;;33.33;84.46
6565;BME280;3316;44.118;27.258;2023-08-30T07:48:40;100092.28;;;33.94;81.46
6565;BME280;3316;44.118;27.258;2023-08-30T07:51:05;100094.34;;;33.92;80.22
6565;BME280;3316;44.118;27.258;2023-08-30T07:53:31;100081.28;;;33.80;80.13
6565;BME280;3316;44.118;27.258;2023-08-30T07:55:57;100090.56;;;34.09;76.08
6565;BME280;3316;44.118;27.258;2023-08-30T07:58:23;100095.16;;;34.09;72.23
6565;BME280;3316;44.118;27.258;2023-08-30T08:00:54;100078.50;;;34.27;71.17
6565;BME280;3316;44.118;27.258;2023-08-30T08:03:23;100079.88;;;34.53;70.46
6565;BME280;3316;44.118;27.258;2023-08-30T08:05:48;100071.16;;;34.72;69.56
6565;BME280;3316;44.118;27.258;2023-08-30T08:08:14;100076.06;;;35.00;64.49
6565;BME280;3316;44.118;27.258;2023-08-30T08:10:40;100079.03;;;34.90;63.00
6565;BME280;3316;44.118;27.258;2023-08-30T08:13:05;100071.06;;;34.66;66.26
6565;BME280;3316;44.118;27.258;2023-08-30T08:15:31;100068.81;;;34.69;62.43
6565;BME280;3316;44.118;27.258;2023-08-30T08:17:57;100081.59;;;34.54;60.62
6565;BME280;3316;44.118;27.258;2023-08-30T08:20:22;100067.94;;;34.91;61.23
6565;BME280;3316;44.118;27.258;2023-08-30T08:22:48;100078.66;;;34.56;62.91
6565;BME280;3316;44.118;27.258;2023-08-30T08:25:13;100057.38;;;34.43;64.93
6565;BME280;3316;44.118;27.258;2023-08-30T08:27:39;100056.16;;;34.46;63.03
6565;BME280;3316;44.118;27.258;2023-08-30T08:30:05;100054.81;;;34.50;61.28
6565;BME280;3316;44.118;27.258;2023-08-30T08:32:31;100051.03;;;35.25;56.51
6565;BME280;3316;44.118;27.258;2023-08-30T08:34:57;100045.38;;;35.12;55.89
6565;BME280;3316;44.118;27.258;2023-08-30T08:37:22;100056.13;;;34.99;58.15
6565;BME280;3316;44.118;27.258;2023-08-30T08:39:48;100059.16;;;34.81;60.66
6565;BME280;3316;44.118;27.258;2023-08-30T08:42:17;100046.63;;;34.87;60.74
6565;BME280;3316;44.118;27.258;2023-08-30T08:44:43;100045.41;;;34.89;60.84
6565;BME280;3316;44.118;27.258;2023-08-30T08:47:11;100031.09;;;34.20;64.50
6565;BME280;3316;44.118;27.258;2023-08-30T08:49:36;100046.63;;;34.42;64.84
6565;BME280;3316;44.118;27.258;2023-08-30T08:52:03;100044.94;;;34.41;64.27
6565;BME280;3316;44.118;27.258;2023-08-30T08:54:30;100036.94;;;34.62;65.22
6565;BME280;3316;44.118;27.258;2023-08-30T08:56:56;100047.75;;;34.92;61.44
6565;BME280;3316;44.118;27.258;2023-08-30T08:59:22;100045.91;;;34.70;63.58
6565;BME280;3316;44.118;27.258;2023-08-30T09:01:49;100044.50;;;34.97;62.76
6565;BME280;3316;44.118;27.258;2023-08-30T09:04:14;100027.00;;;34.83;61.34
6565;BME280;3316;44.118;27.258;2023-08-30T09:06:40;100035.66;;;35.10;59.13
6565;BME280;3316;44.118;27.258;2023-08-30T09:09:06;100034.25;;;34.99;58.72
6565;BME280;3316;44.118;27.258;2023-08-30T09:11:33;100021.03;;;33.89;61.41
6565;BME280;3316;44.118;27.258;2023-08-30T09:13:59;99993.91;;;33.88;60.50
6565;BME280;3316;44.118;27.258;2023-08-30T09:16:24;100022.69;;;33.98;62.45
6565;BME280;3316;44.118;27.258;2023-08-30T09:19:01;100021.84;;;33.98;63.76
6565;BME280;3316;44.118;27.258;2023-08-30T09:21:28;100020.97;;;34.05;62.34
6565;BME280;3316;44.118;27.258;2023-08-30T09:24:01;99993.66;;;34.28;61.21
6565;BME280;3316;44.118;27.258;2023-08-30T09:26:28;100025.50;;;34.81;60.02
6565;BME280;3316;44.118;27.258;2023-08-30T09:29:03;100000.56;;;34.39;60.22
6565;BME280;3316;44.118;27.258;2023-08-30T09:31:35;99999.41;;;34.33;60.74
6565;BME280;3316;44.118;27.258;2023-08-30T09:34:01;100005.78;;;34.03;62.21
6565;BME280;3316;44.118;27.258;2023-08-30T09:36:34;100002.97;;;33.80;61.54
6565;BME280;3316;44.118;27.258;2023-08-30T09:41:31;100003.19;;;33.71;62.32
6565;BME280;3316;44.118;27.258;2023-08-30T09:43:59;100006.19;;;33.92;61.33
6565;BME280;3316;44.118;27.258;2023-08-30T09:46:25;100007.53;;;34.41;60.42
6565;BME280;3316;44.118;27.258;2023-08-30T09:48:50;99991.16;;;34.64;57.20
6565;BME280;3316;44.118;27.258;2023-08-30T09:51:16;99984.69;;;34.79;56.43
6565;BME280;3316;44.118;27.258;2023-08-30T09:53:47;99992.84;;;34.65;55.12
6565;BME280;3316;44.118;27.258;2023-08-30T09:56:14;99975.22;;;34.67;54.58
6565;BME280;3316;44.118;27.258;2023-08-30T09:58:41;99970.81;;;34.95;53.31
6565;BME280;3316;44.118;27.258;2023-08-30T10:01:07;99953.47;;;34.88;53.34
6565;BME280;3316;44.118;27.258;2023-08-30T10:03:34;99976.47;;;34.94;54.37
6565;BME280;3316;44.118;27.258;2023-08-30T10:06:01;99984.34;;;34.97;53.62
6565;BME280;3316;44.118;27.258;2023-08-30T10:08:29;99970.53;;;34.76;54.27
6565;BME280;3316;44.118;27.258;2023-08-30T10:10:58;99979.66;;;34.46;55.99
6565;BME280;3316;44.118;27.258;2023-08-30T10:13:25;99978.53;;;34.40;57.23
6565;BME280;3316;44.118;27.258;2023-08-30T10:15:53;99965.47;;;34.28;57.35
6565;BME280;3316;44.118;27.258;2023-08-30T10:18:25;99952.50;;;34.30;56.80
6565;BME280;3316;44.118;27.258;2023-08-30T10:20:54;99953.09;;;34.40;56.44
6565;BME280;3316;44.118;27.258;2023-08-30T10:23:21;99959.97;;;34.73;53.70
6565;BME280;3316;44.118;27.258;2023-08-30T10:25:48;99955.47;;;35.09;52.41
6565;BME280;3316;44.118;27.258;2023-08-30T10:28:16;99945.94;;;35.63;51.20
6565;BME280;3316;44.118;27.258;2023-08-30T10:30:42;99959.75;;;35.76;48.98
6565;BME280;3316;44.118;27.258;2023-08-30T10:33:12;99942.34;;;35.48;50.09
6565;BME280;3316;44.118;27.258;2023-08-30T10:35:47;99922.09;;;34.84;51.41
6565;BME280;3316;44.118;27.258;2023-08-30T10:38:24;99924.31;;;34.52;52.66
6565;BME280;3316;44.118;27.258;2023-08-30T10:40:51;99939.81;;;35.18;51.79
6565;BME280;3316;44.118;27.258;2023-08-30T10:43:16;99949.31;;;35.65;48.68
6565;BME280;3316;44.118;27.258;2023-08-30T10:45:42;99936.72;;;35.50;48.15
6565;BME280;3316;44.118;27.258;2023-08-30T10:48:07;99945.97;;;35.70;47.32
6565;BME280;3316;44.118;27.258;2023-08-30T10:50:34;99934.63;;;35.37;47.32
6565;BME280;3316;44.118;27.258;2023-08-30T10:52:59;99942.94;;;35.00;48.84
6565;BME280;3316;44.118;27.258;2023-08-30T10:55:26;99941.78;;;34.94;48.93
6565;BME280;3316;44.118;27.258;2023-08-30T10:58:13;99948.91;;;34.52;49.00
6565;BME280;3316;44.118;27.258;2023-08-30T11:00:40;99935.28;;;34.44;49.22
6565;BME280;3316;44.118;27.258;2023-08-30T11:03:10;99953.59;;;35.10;47.81
6565;BME280;3316;44.118;27.258;2023-08-30T11:05:36;99946.72;;;35.14;45.91
6565;BME280;3316;44.118;27.258;2023-08-30T11:08:01;99942.28;;;34.83;47.57
6565;BME280;3316;44.118;27.258;2023-08-30T11:10:27;99927.19;;;34.87;47.47
6565;BME280;3316;44.118;27.258;2023-08-30T11:12:52;99926.00;;;35.05;46.76
6565;BME280;3316;44.118;27.258;2023-08-30T11:15:18;99926.34;;;35.16;45.89
6565;BME280;3316;44.118;27.258;2023-08-30T11:17:44;99922.41;;;35.19;46.55
6565;BME280;3316;44.118;27.258;2023-08-30T11:20:14;99913.25;;;34.97;46.61
6565;BME280;3316;44.118;27.258;2023-08-30T11:22:43;99920.94;;;34.79;46.88
6565;BME280;3316;44.118;27.258;2023-08-30T11:25:10;99913.31;;;34.89;46.48
6565;BME280;3316;44.118;27.258;2023-08-30T11:27:37;99890.03;;;34.93;45.47
6565;BME280;3316;44.118;27.258;2023-08-30T11:30:03;99910.09;;;35.29;44.05
6565;BME280;3316;44.118;27.258;2023-08-30T11:32:41;99913.00;;;35.78;43.31
6565;BME280;3316;44.118;27.258;2023-08-30T11:35:09;99905.97;;;35.90;42.56
6565;BME280;3316;44.118;27.258;2023-08-30T11:37:35;99908.69;;;36.05;42.96
6565;BME280;3316;44.118;27.258;2023-08-30T11:40:04;99901.69;;;36.23;41.57
6565;BME280;3316;44.118;27.258;2023-08-30T11:42:31;99904.31;;;36.10;41.17
6565;BME280;3316;44.118;27.258;2023-08-30T11:44:58;99888.78;;;35.25;42.62
6565;BME280;3316;44.118;27.258;2023-08-30T11:47:25;99880.78;;;35.23;43.36
6565;BME280;3316;44.118;27.258;2023-08-30T11:49:55;99885.78;;;35.34;43.69
6565;BME280;3316;44.118;27.258;2023-08-30T11:52:21;99864.38;;;35.23;43.12
6565;BME280;3316;44.118;27.258;2023-08-30T11:54:49;99885.44;;;35.58;41.93
6565;BME280;3316;44.118;27.258;2023-08-30T11:57:15;99880.38;;;35.76;41.83
6565;BME280;3316;44.118;27.258;2023-08-30T11:59:40;99880.25;;;35.63;42.47
6565;BME280;3316;44.118;27.258;2023-08-30T12:02:09;99880.47;;;35.47;43.08
6565;BME280;3316;44.118;27.258;2023-08-30T12:04:44;99827.44;;;34.98;43.60
6565;BME280;3316;44.118;27.258;2023-08-30T12:07:21;99866.13;;;35.45;43.14
6565;BME280;3316;44.118;27.258;2023-08-30T12:09:48;99865.66;;;35.27;42.73
6565;BME280;3316;44.118;27.258;2023-08-30T12:12:13;99865.88;;;35.26;42.90
6565;BME280;3316;44.118;27.258;2023-08-30T12:14:38;99868.56;;;35.76;42.51
6565;BME280;3316;44.118;27.258;2023-08-30T12:17:04;99862.53;;;36.29;41.42
6565;BME280;3316;44.118;27.258;2023-08-30T12:19:31;99860.00;;;36.07;41.94
6565;BME280;3316;44.118;27.258;2023-08-30T12:22:03;99811.00;;;36.12;41.22
6565;BME280;3316;44.118;27.258;2023-08-30T12:24:40;99853.97;;;35.90;41.47
6565;BME280;3316;44.118;27.258;2023-08-30T12:27:06;99866.03;;;35.39;42.74
6565;BME280;3316;44.118;27.258;2023-08-30T12:29:31;99859.59;;;35.11;43.52
6565;BME280;3316;44.118;27.258;2023-08-30T12:31:56;99854.16;;;35.32;43.47
6565;BME280;3316;44.118;27.258;2023-08-30T12:34:22;99842.81;;;35.35;43.55
6565;BME280;3316;44.118;27.258;2023-08-30T12:36:47;99836.09;;;35.16;42.51
6565;BME280;3316;44.118;27.258;2023-08-30T12:39:13;99832.91;;;35.13;43.09
6565;BME280;3316;44.118;27.258;2023-08-30T12:41:38;99838.47;;;34.90;43.37
6565;BME280;3316;44.118;27.258;2023-08-30T12:44:06;99825.84;;;34.74;43.81
6565;BME280;3316;44.118;27.258;2023-08-30T12:46:32;99831.97;;;34.76;44.04
6565;BME280;3316;44.118;27.258;2023-08-30T12:48:57;99844.50;;;35.00;44.03
6565;BME280;3316;44.118;27.258;2023-08-30T12:51:23;99841.88;;;35.07;43.04
6565;BME280;3316;44.118;27.258;2023-08-30T12:53:48;99827.63;;;34.82;43.52
6565;BME280;3316;44.118;27.258;2023-08-30T12:56:14;99831.84;;;35.14;43.23
6565;BME280;3316;44.118;27.258;2023-08-30T12:58:39;99827.44;;;35.13;42.87
6565;BME280;3316;44.118;27.258;2023-08-30T13:01:04;99830.16;;;35.13;42.98
6565;BME280;3316;44.118;27.258;2023-08-30T13:03:30;99811.78;;;35.07;43.46
6565;BME280;3316;44.118;27.258;2023-08-30T13:05:56;99803.31;;;35.02;43.98